Time;durP1;ratioP1;P1;durP2;ratioP2;P2;SDS_P1;SDS_P2;PMS_P1;PMS_P2;Temp;Humidity;BMP_temperature;BMP_pressure;BME280_temperature;BME280_humidity;BME280_pressure;Samples;Min_cycle;Max_cycle;Signal;HPM_P1;HPM_P2
2021/09/03 00:00:59;;;;;;;2.15;1.10;;;16.70;99.90;;;;;;5111578;28;20503;-60
2021/09/03 00:03:26;;;;;;;1.87;1.20;;;16.70;99.90;;;;;;5109955;28;20412;-60
2021/09/03 00:05:53;;;;;;;1.60;1.10;;;16.60;99.90;;;;;;5110062;28;20416;-60
2021/09/03 00:08:20;;;;;;;1.80;1.20;;;16.70;99.90;;;;;;5110936;28;20431;-60
2021/09/03 00:10:47;;;;;;;2.33;1.30;;;16.70;99.90;;;;;;5112401;28;20442;-59
2021/09/03 00:13:15;;;;;;;1.90;1.10;;;16.70;99.90;;;;;;5112701;28;20438;-60
2021/09/03 00:15:42;;;;;;;1.90;1.20;;;16.70;99.90;;;;;;5113957;28;20728;-60
2021/09/03 00:18:09;;;;;;;1.67;1.00;;;16.70;99.90;;;;;;5114891;28;20416;-60
2021/09/03 00:20:36;;;;;;;2.70;1.30;;;16.70;99.90;;;;;;5114890;28;20460;-60
2021/09/03 00:23:03;;;;;;;1.92;1.20;;;16.60;99.90;;;;;;5114844;28;20426;-60
2021/09/03 00:25:30;;;;;;;1.80;1.10;;;16.60;99.90;;;;;;5114810;28;20434;-60
2021/09/03 00:27:57;;;;;;;2.40;1.40;;;16.60;99.90;;;;;;5114862;28;20435;-60
2021/09/03 00:30:25;;;;;;;1.52;1.20;;;16.50;99.90;;;;;;5114933;28;20424;-60
2021/09/03 00:32:52;;;;;;;1.85;1.30;;;16.50;99.90;;;;;;5115396;28;20838;-60
2021/09/03 00:35:19;;;;;;;1.60;1.20;;;16.40;99.90;;;;;;5114681;28;20926;-60
2021/09/03 00:37:46;;;;;;;1.80;1.20;;;16.40;99.90;;;;;;5114654;28;20423;-60
2021/09/03 00:40:13;;;;;;;1.98;1.20;;;16.30;99.90;;;;;;5114843;28;20420;-60
2021/09/03 00:42:40;;;;;;;1.50;1.20;;;16.20;99.90;;;;;;5114331;28;20497;-60
2021/09/03 00:45:08;;;;;;;1.75;1.23;;;16.20;99.90;;;;;;5114897;28;20887;-60
2021/09/03 00:47:37;;;;;;;1.92;1.30;;;16.20;99.90;;;;;;5115093;28;20701;-60
2021/09/03 00:50:04;;;;;;;2.28;1.10;;;16.20;99.90;;;;;;5114878;28;20431;-60
2021/09/03 00:52:31;;;;;;;1.60;1.10;;;16.20;99.90;;;;;;5116795;28;20795;-60
2021/09/03 00:54:59;;;;;;;1.63;1.27;;;16.10;99.90;;;;;;5117043;28;20424;-59
2021/09/03 00:57:26;;;;;;;3.53;1.20;;;16.10;99.90;;;;;;5116384;28;20858;-60
2021/09/03 00:59:55;;;;;;;1.90;1.30;;;16.10;99.90;;;;;;5116705;28;20891;-60
2021/09/03 01:02:23;;;;;;;1.60;1.05;;;16.10;99.90;;;;;;5116240;28;20858;-60
2021/09/03 01:04:52;;;;;;;2.00;1.20;;;16.10;99.90;;;;;;5117660;28;20730;-60
2021/09/03 01:07:19;;;;;;;1.92;1.17;;;16.00;99.90;;;;;;5116859;28;20420;-60
2021/09/03 01:09:46;;;;;;;1.90;1.30;;;16.00;99.90;;;;;;5116048;28;20432;-60
2021/09/03 01:12:13;;;;;;;1.90;1.20;;;16.00;99.90;;;;;;5116874;28;20416;-60
2021/09/03 01:14:40;;;;;;;1.80;1.10;;;16.00;99.90;;;;;;5118292;28;20428;-60
2021/09/03 01:17:07;;;;;;;1.57;1.10;;;16.00;99.90;;;;;;5118015;28;20865;-60
2021/09/03 01:19:34;;;;;;;2.20;1.15;;;16.00;99.90;;;;;;5117722;28;20420;-60
2021/09/03 01:22:02;;;;;;;2.42;1.30;;;16.00;99.90;;;;;;5117540;28;20427;-60
2021/09/03 01:24:29;;;;;;;2.70;1.20;;;15.90;99.90;;;;;;5117765;28;20428;-60
2021/09/03 01:26:56;;;;;;;1.90;1.30;;;15.90;99.90;;;;;;5117897;28;20423;-60
2021/09/03 01:29:23;;;;;;;2.25;1.10;;;15.90;99.90;;;;;;5118093;28;20705;-60
2021/09/03 01:31:49;;;;;;;2.20;1.40;;;15.90;99.90;;;;;;5116945;28;20418;-60
2021/09/03 01:34:16;;;;;;;2.30;1.30;;;15.90;99.90;;;;;;5118094;28;20835;-60
2021/09/03 01:36:43;;;;;;;1.60;1.10;;;15.90;99.90;;;;;;5117436;28;20416;-60
2021/09/03 01:39:12;;;;;;;1.90;1.30;;;15.90;99.90;;;;;;5117356;28;20426;-60
2021/09/03 01:41:39;;;;;;;1.60;1.20;;;15.90;99.90;;;;;;5116951;28;20423;-60
2021/09/03 01:44:08;;;;;;;1.60;1.00;;;15.80;99.90;;;;;;5117406;28;20523;-60
2021/09/03 01:46:35;;;;;;;1.90;1.27;;;15.80;99.90;;;;;;5117364;28;20477;-59
2021/09/03 01:49:02;;;;;;;1.50;1.10;;;15.90;99.90;;;;;;5117122;28;20851;-60
2021/09/03 01:51:29;;;;;;;1.60;1.10;;;15.80;99.90;;;;;;5117168;28;20503;-60
2021/09/03 01:53:56;;;;;;;2.70;1.50;;;15.70;99.90;;;;;;5116046;28;20468;-60
2021/09/03 01:56:24;;;;;;;1.70;1.20;;;15.70;99.90;;;;;;5116878;28;20438;-60
2021/09/03 01:58:51;;;;;;;1.50;1.10;;;15.80;99.90;;;;;;5116206;28;20420;-59
2021/09/03 02:01:18;;;;;;;1.73;1.15;;;15.80;99.90;;;;;;5115801;28;20416;-60
2021/09/03 02:03:44;;;;;;;1.73;1.30;;;15.90;99.90;;;;;;5114976;28;20435;-60
2021/09/03 02:06:11;;;;;;;2.83;1.20;;;15.90;99.90;;;;;;5115070;28;20839;-60
2021/09/03 02:08:38;;;;;;;2.00;1.10;;;15.90;99.90;;;;;;5114778;28;20458;-60
2021/09/03 02:11:05;;;;;;;2.35;1.23;;;15.90;99.90;;;;;;5116445;28;20451;-60
2021/09/03 02:13:33;;;;;;;2.60;1.10;;;15.90;99.90;;;;;;5116142;28;20427;-60
2021/09/03 02:16:00;;;;;;;2.03;1.20;;;15.90;99.90;;;;;;5115095;28;20546;-60
2021/09/03 02:18:27;;;;;;;2.10;1.30;;;15.90;99.90;;;;;;5114835;28;20420;-60
2021/09/03 02:20:54;;;;;;;1.80;1.10;;;15.90;99.90;;;;;;5116243;28;20515;-60
2021/09/03 02:23:21;;;;;;;1.90;1.10;;;15.90;99.90;;;;;;5116550;28;20421;-60
2021/09/03 02:25:48;;;;;;;2.25;1.10;;;15.90;99.90;;;;;;5116711;28;20430;-60
2021/09/03 02:28:15;;;;;;;1.70;1.20;;;15.80;99.90;;;;;;5116603;28;20735;-60
2021/09/03 02:30:44;;;;;;;1.70;1.20;;;15.70;99.90;;;;;;5115427;28;20466;-60
2021/09/03 02:33:10;;;;;;;1.90;1.10;;;15.80;99.90;;;;;;5116064;28;20423;-60
2021/09/03 02:35:38;;;;;;;1.50;1.10;;;15.60;99.90;;;;;;5116600;28;20708;-60
2021/09/03 02:38:05;;;;;;;1.70;1.00;;;15.60;99.90;;;;;;5116372;28;20423;-61
2021/09/03 02:40:32;;;;;;;1.85;1.10;;;15.60;99.90;;;;;;5116621;28;20718;-59
2021/09/03 02:42:59;;;;;;;2.05;1.20;;;15.70;99.90;;;;;;5115236;28;20422;-60
2021/09/03 02:45:26;;;;;;;1.52;1.10;;;15.70;99.90;;;;;;5113787;28;20423;-60
2021/09/03 02:47:54;;;;;;;2.50;1.10;;;15.70;99.90;;;;;;5112805;28;20408;-60
2021/09/03 02:50:21;;;;;;;2.00;1.10;;;15.70;99.90;;;;;;5112921;28;20428;-59
2021/09/03 02:52:48;;;;;;;2.05;1.10;;;15.70;99.90;;;;;;5113544;28;20861;-60
2021/09/03 02:55:14;;;;;;;1.70;1.10;;;15.70;99.90;;;;;;5113078;28;20420;-60
2021/09/03 02:57:41;;;;;;;3.60;1.20;;;15.70;99.90;;;;;;5113452;28;20408;-60
2021/09/03 03:00:10;;;;;;;1.45;1.10;;;15.70;99.90;;;;;;5114287;28;20416;-59
2021/09/03 03:02:37;;;;;;;3.25;1.30;;;15.70;99.90;;;;;;5115642;28;20459;-60
2021/09/03 03:05:07;;;;;;;1.80;1.10;;;15.80;99.90;;;;;;5114312;28;20420;-60
2021/09/03 03:07:34;;;;;;;2.35;1.27;;;15.70;99.90;;;;;;5114469;28;21096;-60
2021/09/03 03:10:00;;;;;;;3.70;1.20;;;15.70;99.90;;;;;;5114236;28;20578;-60
2021/09/03 03:12:27;;;;;;;1.80;1.10;;;15.60;99.90;;;;;;5114092;28;20459;-59
2021/09/03 03:14:54;;;;;;;1.60;1.20;;;15.50;99.90;;;;;;5114538;28;20835;-60
2021/09/03 03:17:21;;;;;;;2.00;1.00;;;15.50;99.90;;;;;;5114523;28;20426;-60
2021/09/03 03:19:48;;;;;;;3.30;1.20;;;15.40;99.90;;;;;;5115087;28;20517;-60
2021/09/03 03:22:16;;;;;;;1.90;1.20;;;15.40;99.90;;;;;;5115339;28;20836;-60
2021/09/03 03:24:43;;;;;;;2.20;1.20;;;15.40;99.90;;;;;;5115530;28;20423;-60
2021/09/03 03:27:10;;;;;;;2.30;1.20;;;15.40;99.90;;;;;;5115831;28;20416;-59
2021/09/03 03:29:37;;;;;;;2.20;1.30;;;15.30;99.90;;;;;;5115470;28;20518;-60
2021/09/03 03:32:05;;;;;;;1.73;1.20;;;15.30;99.90;;;;;;5115682;28;20511;-60
2021/09/03 03:34:32;;;;;;;1.92;1.30;;;15.30;99.90;;;;;;5115546;28;20427;-59
2021/09/03 03:36:59;;;;;;;2.17;1.10;;;15.30;99.90;;;;;;5115522;28;20412;-60
2021/09/03 03:39:27;;;;;;;1.90;1.20;;;15.20;99.90;;;;;;5115734;28;20424;-59
2021/09/03 03:41:54;;;;;;;2.25;1.40;;;15.20;99.90;;;;;;5115240;28;20427;-60
2021/09/03 03:44:22;;;;;;;1.95;1.30;;;15.10;99.90;;;;;;5114843;28;20800;-60
2021/09/03 03:46:48;;;;;;;2.10;1.40;;;15.20;99.90;;;;;;5115321;28;20445;-60
2021/09/03 03:49:15;;;;;;;2.60;1.40;;;15.10;99.90;;;;;;5114919;28;20434;-60
2021/09/03 03:51:42;;;;;;;2.00;1.30;;;15.10;99.90;;;;;;5115214;28;20412;-60
2021/09/03 03:54:09;;;;;;;2.58;1.40;;;15.10;99.90;;;;;;5115616;28;20677;-59
2021/09/03 03:56:38;;;;;;;2.65;1.15;;;15.10;99.90;;;;;;5115197;28;20424;-60
2021/09/03 03:59:04;;;;;;;2.00;1.20;;;15.10;99.90;;;;;;5115089;28;20462;-60
2021/09/03 04:01:32;;;;;;;2.28;1.30;;;15.20;99.90;;;;;;5115041;28;20873;-60
2021/09/03 04:03:59;;;;;;;2.42;1.30;;;15.30;99.90;;;;;;5114862;28;20828;-59
2021/09/03 04:06:26;;;;;;;2.38;1.40;;;15.30;99.90;;;;;;5115075;28;20481;-60
2021/09/03 04:08:52;;;;;;;2.30;1.45;;;15.20;99.90;;;;;;5114418;28;20442;-60
2021/09/03 04:11:19;;;;;;;2.10;1.13;;;15.20;99.90;;;;;;5114754;28;20422;-60
2021/09/03 04:13:48;;;;;;;1.80;1.10;;;15.20;99.90;;;;;;5115536;28;20422;-59
2021/09/03 04:16:14;;;;;;;1.95;1.20;;;15.10;99.90;;;;;;5114764;28;20416;-61
2021/09/03 04:18:41;;;;;;;1.70;1.20;;;15.10;99.90;;;;;;5114839;28;20426;-61
2021/09/03 04:21:08;;;;;;;2.00;1.10;;;15.00;99.90;;;;;;5115109;28;20510;-61
2021/09/03 04:23:35;;;;;;;1.60;1.10;;;15.00;99.90;;;;;;5115513;28;20798;-61
2021/09/03 04:26:02;;;;;;;1.75;1.00;;;15.10;99.90;;;;;;5117647;28;20420;-61
2021/09/03 04:28:29;;;;;;;3.90;1.10;;;15.20;99.90;;;;;;5117840;28;20424;-60
2021/09/03 04:30:57;;;;;;;2.63;1.27;;;15.20;99.90;;;;;;5117760;28;20427;-61
2021/09/03 04:33:24;;;;;;;1.60;1.20;;;15.30;99.90;;;;;;5117868;28;20432;-61
2021/09/03 04:35:50;;;;;;;2.10;1.30;;;15.20;99.90;;;;;;5116824;28;20505;-61
2021/09/03 04:38:17;;;;;;;2.50;1.20;;;15.10;99.90;;;;;;5117815;28;20722;-61
2021/09/03 04:40:45;;;;;;;3.23;1.30;;;15.10;99.90;;;;;;5117581;28;20407;-61
2021/09/03 04:43:11;;;;;;;1.77;1.10;;;15.00;99.90;;;;;;5117328;28;20416;-61
2021/09/03 04:45:38;;;;;;;2.05;1.30;;;15.00;99.90;;;;;;5116764;28;20719;-61
2021/09/03 04:48:07;;;;;;;2.60;1.30;;;15.00;99.90;;;;;;5117113;28;20422;-61
2021/09/03 04:50:34;;;;;;;2.30;1.20;;;14.90;99.90;;;;;;5116167;28;20886;-61
2021/09/03 04:53:01;;;;;;;3.00;1.40;;;14.90;99.90;;;;;;5116063;28;20423;-61
2021/09/03 04:55:28;;;;;;;1.70;1.20;;;14.90;99.90;;;;;;5116502;28;20442;-61
2021/09/03 04:57:55;;;;;;;2.20;1.40;;;14.80;99.90;;;;;;5117136;28;20408;-61
2021/09/03 05:00:22;;;;;;;1.90;1.30;;;14.80;99.90;;;;;;5116655;28;20412;-61
2021/09/03 05:02:49;;;;;;;3.47;1.10;;;14.80;99.90;;;;;;5116093;28;20766;-61
2021/09/03 05:05:18;;;;;;;2.70;1.30;;;14.80;99.90;;;;;;5116579;28;20920;-61
2021/09/03 05:07:45;;;;;;;1.73;1.27;;;14.80;99.90;;;;;;5115063;28;20739;-60
2021/09/03 05:10:13;;;;;;;2.20;1.20;;;14.80;99.90;;;;;;5115742;28;20869;-61
2021/09/03 05:12:41;;;;;;;1.70;1.20;;;14.80;99.90;;;;;;5116021;28;20514;-61
2021/09/03 05:15:10;;;;;;;2.60;1.20;;;14.90;99.90;;;;;;5116209;28;20423;-61
2021/09/03 05:17:38;;;;;;;2.00;1.30;;;15.00;99.90;;;;;;5115139;28;20435;-61
2021/09/03 05:20:06;;;;;;;1.70;1.20;;;15.00;99.90;;;;;;5115322;28;20894;-61
2021/09/03 05:22:35;;;;;;;2.00;1.35;;;15.10;99.90;;;;;;5114413;28;20834;-61
2021/09/03 05:25:03;;;;;;;2.00;1.30;;;15.20;99.90;;;;;;5116130;28;20431;-61
2021/09/03 05:27:30;;;;;;;2.40;1.38;;;15.20;99.90;;;;;;5115716;28;20416;-61
2021/09/03 05:29:57;;;;;;;2.28;1.30;;;15.10;99.90;;;;;;5115768;28;20436;-61
2021/09/03 05:32:23;;;;;;;2.50;1.50;;;15.10;99.90;;;;;;5115816;28;20701;-61
2021/09/03 05:34:51;;;;;;;2.30;1.20;;;15.10;99.90;;;;;;5116142;28;20420;-61
2021/09/03 05:37:18;;;;;;;2.90;1.40;;;15.20;99.90;;;;;;5116132;28;20426;-61
2021/09/03 05:39:46;;;;;;;2.30;1.30;;;15.20;99.90;;;;;;5115651;28;20731;-61
2021/09/03 05:42:14;;;;;;;2.90;1.58;;;15.20;99.90;;;;;;5115975;28;20419;-61
2021/09/03 05:44:41;;;;;;;3.10;1.20;;;15.10;99.90;;;;;;5114883;28;20431;-61
2021/09/03 05:47:08;;;;;;;2.42;1.20;;;15.00;99.90;;;;;;5114962;28;20834;-61
2021/09/03 05:49:35;;;;;;;1.50;1.30;;;15.00;99.90;;;;;;5114795;28;20931;-61
2021/09/03 05:52:02;;;;;;;2.63;1.70;;;15.00;99.90;;;;;;5115099;28;20442;-61
2021/09/03 05:54:28;;;;;;;2.10;1.30;;;15.10;99.90;;;;;;5115865;28;20412;-61
2021/09/03 05:56:57;;;;;;;2.47;1.30;;;15.20;99.90;;;;;;5116354;28;20443;-60
2021/09/03 05:59:23;;;;;;;1.98;1.20;;;15.20;99.90;;;;;;5115213;28;20731;-61
2021/09/03 06:01:51;;;;;;;2.40;1.50;;;15.30;99.90;;;;;;5116053;28;20427;-61
2021/09/03 06:04:18;;;;;;;2.80;1.90;;;15.20;99.90;;;;;;5116111;28;20424;-61
2021/09/03 06:06:44;;;;;;;2.25;1.70;;;15.20;99.90;;;;;;5116213;28;20416;-60
2021/09/03 06:09:11;;;;;;;2.10;1.70;;;15.20;99.90;;;;;;5116769;28;20471;-60
2021/09/03 06:11:38;;;;;;;1.80;1.40;;;15.00;99.90;;;;;;5114613;28;20700;-60
2021/09/03 06:14:07;;;;;;;1.90;1.30;;;15.00;99.90;;;;;;5113308;28;20519;-61
2021/09/03 06:16:33;;;;;;;2.53;1.30;;;15.20;99.90;;;;;;5112574;28;20862;-59
2021/09/03 06:19:00;;;;;;;3.45;1.60;;;15.50;99.90;;;;;;5112922;28;20451;-60
2021/09/03 06:21:27;;;;;;;4.35;2.25;;;15.70;99.90;;;;;;5112096;28;20405;-60
2021/09/03 06:23:54;;;;;;;4.18;2.25;;;15.50;99.90;;;;;;5112662;28;20424;-59
2021/09/03 06:26:21;;;;;;;3.45;2.08;;;15.20;99.90;;;;;;5115130;28;20829;-60
2021/09/03 06:28:48;;;;;;;4.07;1.90;;;15.00;99.90;;;;;;5115064;28;20424;-60
2021/09/03 06:31:16;;;;;;;2.95;1.90;;;14.90;99.90;;;;;;5114864;28;20428;-59
2021/09/03 06:33:43;;;;;;;2.75;1.75;;;15.00;99.90;;;;;;5115432;28;20454;-60
2021/09/03 06:36:10;;;;;;;2.90;1.85;;;15.10;99.90;;;;;;5115128;28;20416;-59
2021/09/03 06:38:37;;;;;;;3.10;1.70;;;15.10;99.90;;;;;;5114638;28;20428;-59
2021/09/03 06:41:04;;;;;;;2.97;1.60;;;15.10;99.90;;;;;;5113511;28;20559;-60
2021/09/03 06:43:30;;;;;;;3.63;1.95;;;15.30;99.90;;;;;;5113485;28;20518;-60
2021/09/03 06:45:57;;;;;;;2.70;1.70;;;15.40;99.90;;;;;;5112010;28;20418;-60
2021/09/03 06:48:25;;;;;;;1.98;1.73;;;15.50;99.90;;;;;;5109837;28;20459;-60
2021/09/03 06:50:52;;;;;;;2.85;1.40;;;15.50;99.90;;;;;;5110183;28;20435;-60
2021/09/03 06:53:20;;;;;;;2.70;1.40;;;15.70;99.90;;;;;;5109767;28;20416;-60
2021/09/03 06:55:47;;;;;;;2.60;1.40;;;16.00;99.90;;;;;;5111438;28;20520;-60
2021/09/03 06:58:14;;;;;;;2.30;1.55;;;16.10;99.90;;;;;;5111532;28;20444;-60
2021/09/03 07:00:41;;;;;;;2.30;1.60;;;16.20;99.90;;;;;;5111276;28;20419;-59
2021/09/03 07:03:08;;;;;;;2.70;1.80;;;16.30;99.90;;;;;;5111032;28;20420;-60
2021/09/03 07:05:36;;;;;;;2.85;1.50;;;16.20;99.90;;;;;;5112413;28;20428;-60
2021/09/03 07:08:03;;;;;;;2.30;1.40;;;16.30;99.90;;;;;;5113952;28;20412;-60
2021/09/03 07:10:30;;;;;;;2.50;1.50;;;16.50;99.90;;;;;;5112465;28;20440;-60
2021/09/03 07:12:57;;;;;;;3.25;1.90;;;16.60;99.90;;;;;;5111155;28;20747;-59
2021/09/03 07:15:24;;;;;;;3.50;1.80;;;16.60;99.90;;;;;;5111061;28;20416;-60
2021/09/03 07:17:51;;;;;;;2.40;1.70;;;16.70;99.90;;;;;;5111795;28;20811;-61
2021/09/03 07:20:17;;;;;;;2.47;1.65;;;16.80;99.90;;;;;;5110345;28;20708;-61
2021/09/03 07:22:50;;;;;;;3.13;2.13;;;16.70;99.90;;;;;;5108645;28;20422;-61
2021/09/03 07:25:18;;;;;;;2.17;1.60;;;16.70;99.90;;;;;;5110808;28;20840;-60
2021/09/03 07:27:45;;;;;;;2.95;1.92;;;16.70;99.90;;;;;;5111840;28;20412;-62
2021/09/03 07:30:12;;;;;;;2.65;1.60;;;16.70;99.90;;;;;;5112355;28;20434;-60
2021/09/03 07:32:41;;;;;;;4.07;1.80;;;16.80;99.90;;;;;;5110533;28;20422;-61
2021/09/03 07:35:09;;;;;;;2.00;1.50;;;16.90;99.90;;;;;;5108657;28;20416;-61
2021/09/03 07:37:36;;;;;;;2.22;1.20;;;16.90;99.90;;;;;;5110980;28;20774;-61
2021/09/03 07:40:06;;;;;;;2.25;1.30;;;17.00;99.90;;;;;;5110088;28;20548;-60
2021/09/03 07:42:33;;;;;;;1.60;1.30;;;17.10;99.90;;;;;;5112135;28;20435;-61
2021/09/03 07:45:01;;;;;;;9.03;6.00;;;17.20;99.90;;;;;;5111756;28;20730;-61
2021/09/03 07:47:28;;;;;;;3.90;2.63;;;17.30;99.90;;;;;;5112072;28;20428;-61
2021/09/03 07:49:55;;;;;;;2.92;2.10;;;17.30;99.90;;;;;;5111884;28;20423;-61
2021/09/03 07:52:22;;;;;;;3.40;2.50;;;17.40;99.90;;;;;;5111710;28;20649;-61
2021/09/03 07:54:49;;;;;;;2.70;1.40;;;17.50;99.90;;;;;;5110994;28;20446;-61
2021/09/03 07:57:17;;;;;;;3.60;1.80;;;17.60;99.90;;;;;;5109123;28;20719;-61
2021/09/03 07:59:44;;;;;;;2.53;1.40;;;17.70;99.90;;;;;;5108532;28;20422;-60
2021/09/03 08:02:11;;;;;;;2.55;1.40;;;17.80;99.90;;;;;;5093358;28;20837;-60
2021/09/03 08:04:38;;;;;;;2.60;1.63;;;17.80;99.90;;;;;;5093484;28;20687;-60
2021/09/03 08:07:05;;;;;;;3.15;1.60;;;17.80;99.90;;;;;;5093896;28;20761;-60
2021/09/03 08:09:32;;;;;;;2.20;1.20;;;17.90;99.90;;;;;;5091106;28;20586;-60
2021/09/03 08:11:59;;;;;;;2.00;1.30;;;17.90;99.90;;;;;;5092168;28;20426;-60
2021/09/03 08:14:27;;;;;;;2.10;1.38;;;18.00;99.90;;;;;;5092306;28;20421;-60
2021/09/03 08:16:54;;;;;;;2.80;1.40;;;18.00;99.90;;;;;;5093956;28;20429;-60
2021/09/03 08:19:20;;;;;;;2.92;1.60;;;18.10;99.90;;;;;;5092603;28;20414;-60
2021/09/03 08:21:47;;;;;;;2.00;1.40;;;18.20;99.90;;;;;;5089860;28;20422;-60
2021/09/03 08:24:14;;;;;;;2.10;1.38;;;18.30;99.90;;;;;;5093185;28;20418;-60
2021/09/03 08:26:41;;;;;;;2.10;1.30;;;18.40;99.90;;;;;;5093614;28;20418;-60
2021/09/03 08:29:08;;;;;;;3.22;1.77;;;18.60;99.90;;;;;;5093528;28;20409;-60
2021/09/03 08:31:36;;;;;;;2.10;1.30;;;18.80;99.90;;;;;;5093675;28;20532;-60
2021/09/03 08:34:05;;;;;;;2.07;1.50;;;18.90;99.90;;;;;;5094267;28;20822;-61
2021/09/03 08:36:33;;;;;;;2.30;1.40;;;18.80;99.90;;;;;;5095915;28;20475;-61
2021/09/03 08:38:59;;;;;;;3.20;1.40;;;18.90;99.90;;;;;;5092236;28;20444;-59
2021/09/03 08:41:27;;;;;;;2.03;1.42;;;19.00;99.90;;;;;;5092298;28;20432;-59
2021/09/03 08:43:56;;;;;;;4.72;1.48;;;19.10;99.90;;;;;;5090318;28;20938;-59
2021/09/03 08:46:24;;;;;;;2.38;1.20;;;19.30;99.90;;;;;;5093366;28;20434;-60
2021/09/03 08:48:52;;;;;;;2.60;1.10;;;19.50;99.90;;;;;;5096217;28;20418;-59
2021/09/03 08:51:19;;;;;;;2.50;1.30;;;19.70;99.90;;;;;;5089736;28;20436;-59
2021/09/03 08:53:47;;;;;;;2.17;1.20;;;19.80;99.90;;;;;;5092531;28;20488;-59
2021/09/03 08:56:14;;;;;;;1.80;1.15;;;20.00;99.90;;;;;;5092358;28;20414;-59
2021/09/03 08:58:40;;;;;;;1.70;1.30;;;20.00;99.90;;;;;;5092461;28;20972;-60
2021/09/03 09:01:09;;;;;;;1.70;1.20;;;19.90;99.90;;;;;;5093109;28;20420;-60
2021/09/03 09:03:37;;;;;;;2.40;1.30;;;19.90;99.90;;;;;;5093520;28;20421;-59
2021/09/03 09:06:06;;;;;;;1.80;1.33;;;20.10;99.90;;;;;;5095602;28;20422;-59
2021/09/03 09:08:35;;;;;;;1.98;1.20;;;20.00;99.90;;;;;;5094237;28;21075;-59
2021/09/03 09:11:03;;;;;;;4.05;1.50;;;20.10;99.90;;;;;;5095349;28;20438;-60
2021/09/03 09:13:32;;;;;;;1.90;1.20;;;20.30;99.90;;;;;;5096810;28;20440;-59
2021/09/03 09:16:09;;;;;;;2.00;1.20;;;20.40;99.90;;;;;;5093996;28;20418;-60
2021/09/03 09:18:39;;;;;;;2.00;1.10;;;20.50;99.90;;;;;;5092261;28;20442;-60
2021/09/03 09:21:16;;;;;;;1.95;1.20;;;20.60;99.90;;;;;;5094838;28;20430;-61
2021/09/03 09:23:46;;;;;;;2.67;1.20;;;20.50;99.90;;;;;;5095159;28;20869;-60
2021/09/03 09:26:13;;;;;;;2.08;1.20;;;20.50;99.90;;;;;;5095880;28;20418;-60
2021/09/03 09:28:40;;;;;;;3.17;1.30;;;20.70;99.90;;;;;;5094513;28;20520;-61
2021/09/03 09:31:08;;;;;;;2.40;1.20;;;20.80;99.90;;;;;;5093170;28;20444;-61
2021/09/03 09:33:35;;;;;;;2.47;1.38;;;21.00;99.90;;;;;;5093069;28;20517;-60
2021/09/03 09:36:04;;;;;;;2.35;1.30;;;21.20;99.90;;;;;;5091035;28;20494;-61
2021/09/03 09:38:34;;;;;;;2.40;1.30;;;21.10;99.90;;;;;;5091386;28;20417;-60
2021/09/03 09:41:03;;;;;;;1.67;1.30;;;21.10;99.90;;;;;;5095248;28;20443;-52
2021/09/03 09:43:33;;;;;;;1.90;1.50;;;21.00;99.90;;;;;;5094569;28;21288;-55
2021/09/03 09:46:20;;;;;;;2.20;1.20;;;21.10;99.90;;;;;;5112480;28;20430;-56
2021/09/03 09:49:09;;;;;;;2.20;1.40;;;21.00;99.90;;;;;;5094757;28;20426;-55
2021/09/03 09:51:39;;;;;;;1.58;1.20;;;21.20;99.90;;;;;;5093313;28;20509;-57
2021/09/03 09:54:09;;;;;;;1.95;1.20;;;21.50;99.90;;;;;;5093067;28;20426;-52
2021/09/03 09:56:39;;;;;;;2.35;1.20;;;21.60;99.90;;;;;;5092933;28;20418;-55
2021/09/03 09:59:09;;;;;;;1.70;1.20;;;21.60;99.90;;;;;;5095971;28;20429;-52
2021/09/03 10:01:37;;;;;;;1.80;1.20;;;21.80;99.90;;;;;;5108531;28;20766;-56
2021/09/03 10:04:06;;;;;;;1.90;1.20;;;21.90;99.90;;;;;;5112563;28;20484;-57
2021/09/03 10:06:35;;;;;;;1.70;1.00;;;22.20;99.90;;;;;;5112524;28;20459;-54
2021/09/03 10:09:03;;;;;;;1.70;1.20;;;22.20;99.90;;;;;;5114228;28;20422;-52
2021/09/03 10:11:32;;;;;;;3.00;1.30;;;22.40;99.90;;;;;;5113529;28;20440;-56
2021/09/03 10:13:58;;;;;;;1.67;1.30;;;22.30;99.90;;;;;;5114234;28;20794;-56
2021/09/03 10:16:25;;;;;;;1.73;1.30;;;22.70;99.90;;;;;;5114342;28;20447;-56
2021/09/03 10:18:56;;;;;;;1.75;1.10;;;22.90;99.90;;;;;;5112625;28;20424;-56
2021/09/03 10:21:26;;;;;;;1.70;1.10;;;22.60;99.90;;;;;;5112663;28;20742;-56
2021/09/03 10:24:10;;;;;;;2.80;1.30;;;22.90;99.90;;;;;;5112690;28;20415;-53
2021/09/03 10:26:39;;;;;;;1.67;1.23;;;23.30;99.90;;;;;;5093508;28;20426;-60
2021/09/03 10:29:23;;;;;;;1.50;1.10;;;23.40;99.90;;;;;;5091339;28;20720;-61
2021/09/03 10:32:26;;;;;;;1.23;1.10;;;23.90;99.90;;;;;;5092010;28;20732;-61
2021/09/03 10:35:03;;;;;;;1.80;1.20;;;24.20;99.90;;;;;;5092712;28;20445;-62
2021/09/03 10:37:35;;;;;;;1.40;1.00;;;24.40;99.90;;;;;;5091285;28;20448;-61
2021/09/03 10:40:24;;;;;;;2.10;1.60;;;24.60;99.90;;;;;;5095729;28;20898;-61
2021/09/03 10:42:58;;;;;;;2.72;1.30;;;24.80;99.90;;;;;;5112669;28;20843;-61
2021/09/03 10:45:35;;;;;;;3.05;1.33;;;24.80;99.90;;;;;;5115097;28;20456;-62
2021/09/03 10:48:12;;;;;;;3.33;1.25;;;24.50;99.90;;;;;;5107828;28;20499;-62
2021/09/03 10:50:43;;;;;;;2.00;1.27;;;24.60;99.90;;;;;;5111312;28;20451;-61
2021/09/03 10:53:28;;;;;;;1.48;1.10;;;24.10;99.90;;;;;;5111449;28;20427;-62
2021/09/03 10:56:01;;;;;;;1.67;1.30;;;24.60;99.90;;;;;;5110801;28;20443;-62
2021/09/03 10:58:47;;;;;;;2.97;1.20;;;24.80;99.90;;;;;;5108875;28;20522;-62
2021/09/03 11:01:45;;;;;;;1.73;1.20;;;25.00;99.90;;;;;;5088887;28;20454;-61
2021/09/03 11:07:04;;;;;;;2.20;1.20;;;25.00;99.90;;;;;;5081901;28;20986;-62
2021/09/03 11:09:36;;;;;;;1.60;1.10;;;25.10;99.90;;;;;;5101225;28;20452;-60
2021/09/03 11:12:09;;;;;;;1.60;1.10;;;25.00;99.90;;;;;;5097348;28;20918;-62
2021/09/03 11:14:38;;;;;;;1.57;1.20;;;25.00;99.90;;;;;;5089665;28;20414;-61
2021/09/03 11:17:06;;;;;;;1.60;1.10;;;25.20;99.90;;;;;;5090452;28;20437;-61
2021/09/03 11:19:35;;;;;;;2.22;1.20;;;25.50;99.90;;;;;;5090449;28;20469;-61
2021/09/03 11:22:07;;;;;;;1.40;1.10;;;25.60;99.90;;;;;;5087280;28;20425;-61
2021/09/03 11:24:36;;;;;;;1.92;1.10;;;25.50;99.90;;;;;;5090076;28;20505;-62
2021/09/03 11:27:06;;;;;;;1.77;1.27;;;25.60;99.90;;;;;;5091897;28;20506;-62
2021/09/03 11:29:35;;;;;;;1.70;1.20;;;25.70;99.90;;;;;;5093470;28;20636;-62
2021/09/03 11:32:07;;;;;;;1.60;1.20;;;25.60;99.90;;;;;;5094429;28;20520;-62
2021/09/03 11:35:05;;;;;;;1.73;1.10;;;25.60;99.90;;;;;;5096690;28;20427;-62
2021/09/03 11:37:34;;;;;;;1.50;1.10;;;25.50;99.90;;;;;;5008104;28;20586;-61
2021/09/03 11:40:13;;;;;;;2.10;1.20;;;25.70;99.90;;;;;;5091422;28;20849;-61
2021/09/03 11:42:42;;;;;;;1.50;1.10;;;25.70;99.90;;;;;;5109372;28;20420;-61
2021/09/03 11:45:14;;;;;;;1.45;1.15;;;25.60;99.90;;;;;;5109026;28;20885;-60
2021/09/03 11:47:52;;;;;;;1.50;1.20;;;25.50;99.90;;;;;;5108373;28;20526;-61
2021/09/03 11:50:21;;;;;;;2.95;1.20;;;25.70;99.90;;;;;;5108190;28;20420;-60
2021/09/03 11:52:50;;;;;;;1.83;1.20;;;25.80;99.90;;;;;;5109062;28;20455;-61
2021/09/03 11:55:18;;;;;;;2.10;1.30;;;26.00;99.90;;;;;;5107903;28;20488;-61
2021/09/03 11:57:57;;;;;;;1.60;1.10;;;26.40;99.90;;;;;;5107289;28;20415;-60
2021/09/03 12:00:25;;;;;;;1.70;1.20;;;26.60;99.90;;;;;;5108994;28;20885;-61
2021/09/03 12:02:54;;;;;;;1.60;1.20;;;26.60;99.90;;;;;;5108843;28;20495;-61
2021/09/03 12:05:22;;;;;;;1.83;1.10;;;26.60;99.90;;;;;;5108655;28;20699;-61
2021/09/03 12:08:07;;;;;;;1.50;1.27;;;26.60;99.90;;;;;;5109068;28;20431;-61
2021/09/03 12:10:53;;;;;;;9.05;7.70;;;27.00;99.90;;;;;;5109068;28;20416;-61
2021/09/03 12:13:22;;;;;;;1.83;1.20;;;27.20;99.90;;;;;;5088273;28;20434;-61
2021/09/03 12:15:58;;;;;;;1.33;1.10;;;26.90;99.90;;;;;;5090370;28;20415;-60
2021/09/03 12:18:28;;;;;;;1.50;1.20;;;26.30;99.90;;;;;;5090023;28;20520;-60
2021/09/03 12:20:58;;;;;;;1.70;1.20;;;26.40;99.90;;;;;;5090950;28;20491;-60
2021/09/03 12:23:26;;;;;;;1.58;1.27;;;26.10;99.90;;;;;;5089906;28;20710;-61
2021/09/03 12:26:03;;;;;;;1.60;1.05;;;26.10;99.90;;;;;;5092820;28;20418;-61
2021/09/03 12:28:30;;;;;;;1.70;1.05;;;25.50;99.90;;;;;;5089189;28;20433;-61
2021/09/03 12:30:57;;;;;;;1.50;1.20;;;25.90;99.90;;;;;;5090127;28;20418;-60
2021/09/03 12:33:30;;;;;;;1.60;1.20;;;25.80;99.90;;;;;;5088840;28;20429;-60
2021/09/03 12:35:59;;;;;;;3.00;1.10;;;25.90;99.90;;;;;;5087243;28;20837;-60
2021/09/03 12:38:35;;;;;;;1.55;1.00;;;26.30;99.90;;;;;;5086174;28;20440;-60
2021/09/03 12:41:11;;;;;;;1.45;1.00;;;26.80;99.90;;;;;;5086020;28;20729;-60
2021/09/03 12:43:38;;;;;;;1.30;0.93;;;27.00;99.90;;;;;;5090143;28;20496;-60
2021/09/03 12:46:10;;;;;;;1.60;1.10;;;27.20;99.90;;;;;;5092113;28;20505;-60
2021/09/03 12:48:40;;;;;;;1.60;1.00;;;27.20;99.90;;;;;;5092407;28;20449;-60
2021/09/03 12:51:07;;;;;;;1.70;1.10;;;27.30;99.90;;;;;;5092573;28;20917;-60
2021/09/03 12:53:34;;;;;;;2.83;1.00;;;26.90;99.90;;;;;;5092584;28;20584;-60
2021/09/03 12:56:03;;;;;;;1.83;1.20;;;26.80;99.90;;;;;;5093521;28;20410;-60
2021/09/03 12:58:30;;;;;;;2.10;1.10;;;26.60;99.90;;;;;;5091291;28;20553;-60